Time;durP1;ratioP1;P1;durP2;ratioP2;P2;SDS_P1;SDS_P2;PMS_P1;PMS_P2;Temp;Humidity;BMP_temperature;BMP_pressure;BME280_temperature;BME280_humidity;BME280_pressure;Samples;Min_cycle;Max_cycle;Signal;HPM_P1;HPM_P2
2022/12/02 04:00:54;;;;;;;2.40;2.30;;;6.30;86.50;;;;;;5945695;23;22148;-76
2022/12/02 04:03:20;;;;;;;2.13;2.13;;;6.30;86.40;;;;;;4996537;28;20782;-76
2022/12/02 04:05:47;;;;;;;2.10;2.10;;;6.40;86.20;;;;;;4996201;28;20454;-76
2022/12/02 04:08:14;;;;;;;2.07;2.07;;;6.40;86.10;;;;;;4996172;28;20452;-76
2022/12/02 04:10:40;;;;;;;2.27;2.27;;;6.40;86.00;;;;;;4995757;28;20495;-76
2022/12/02 04:13:07;;;;;;;2.23;2.23;;;6.40;85.80;;;;;;4995967;28;20485;-76
2022/12/02 04:15:34;;;;;;;2.53;2.43;;;6.30;86.30;;;;;;4996706;28;20457;-76
2022/12/02 04:18:02;;;;;;;1.97;1.97;;;6.30;86.30;;;;;;4995485;28;20449;-76
2022/12/02 04:20:28;;;;;;;2.50;2.40;;;6.30;86.20;;;;;;4996131;28;20819;-76
2022/12/02 04:22:55;;;;;;;2.10;2.10;;;6.40;86.10;;;;;;4995882;28;20453;-76
2022/12/02 04:25:22;;;;;;;2.53;2.43;;;6.40;85.90;;;;;;4997703;28;20449;-75
2022/12/02 04:27:48;;;;;;;2.00;2.00;;;6.40;85.60;;;;;;4998135;28;20828;-77
2022/12/02 04:30:15;;;;;;;2.27;2.27;;;6.40;86.10;;;;;;4998100;28;20452;-76
2022/12/02 04:32:42;;;;;;;2.23;2.20;;;6.40;86.00;;;;;;4997640;28;20485;-76
2022/12/02 04:35:11;;;;;;;2.27;2.27;;;6.30;86.00;;;;;;4997914;28;20445;-75
2022/12/02 04:37:37;;;;;;;2.17;2.17;;;6.40;86.10;;;;;;4997725;28;20962;-76
2022/12/02 04:40:05;;;;;;;2.10;2.10;;;6.40;86.00;;;;;;4997610;28;20456;-76
2022/12/02 04:42:32;;;;;;;2.60;2.50;;;6.40;85.80;;;;;;4995150;28;20853;-76
2022/12/02 04:44:59;;;;;;;2.60;2.60;;;6.30;85.90;;;;;;4995479;28;20821;-76
2022/12/02 04:47:25;;;;;;;2.10;2.10;;;6.30;86.20;;;;;;4995338;28;20452;-76
2022/12/02 04:49:52;;;;;;;2.00;2.00;;;6.30;86.40;;;;;;4995357;28;20850;-76
2022/12/02 04:52:20;;;;;;;2.60;2.50;;;6.20;86.40;;;;;;4995162;28;20488;-76
2022/12/02 04:54:47;;;;;;;2.70;2.60;;;6.20;86.50;;;;;;4994969;28;20453;-76
2022/12/02 04:57:13;;;;;;;2.73;2.63;;;6.30;86.50;;;;;;4995423;28;20460;-76
2022/12/02 04:59:40;;;;;;;2.23;2.23;;;6.30;86.50;;;;;;4994884;28;20450;-76
2022/12/02 05:02:07;;;;;;;2.23;2.23;;;6.30;86.60;;;;;;4994950;28;20569;-76
2022/12/02 05:04:34;;;;;;;2.20;2.20;;;6.30;86.30;;;;;;4995062;28;20453;-76
2022/12/02 05:07:00;;;;;;;2.10;2.10;;;6.20;86.40;;;;;;4994991;28;20824;-76
2022/12/02 05:09:28;;;;;;;2.33;2.23;;;6.30;86.50;;;;;;4994987;28;20449;-76
2022/12/02 05:11:55;;;;;;;2.30;2.30;;;6.20;86.40;;;;;;4995458;28;20481;-76
2022/12/02 05:14:22;;;;;;;2.77;2.67;;;6.10;86.60;;;;;;4997361;28;20457;-76
2022/12/02 05:16:48;;;;;;;2.33;2.30;;;6.00;87.00;;;;;;4994798;28;20943;-76
2022/12/02 05:19:15;;;;;;;2.63;2.53;;;6.00;87.40;;;;;;4994784;28;20457;-76
2022/12/02 05:21:42;;;;;;;2.23;2.13;;;6.00;87.10;;;;;;4994709;28;20468;-76
2022/12/02 05:24:09;;;;;;;2.30;2.30;;;6.10;87.30;;;;;;4994682;28;20445;-76
2022/12/02 05:26:37;;;;;;;2.37;2.33;;;6.10;87.10;;;;;;4994650;28;20445;-76
2022/12/02 05:29:04;;;;;;;2.70;2.60;;;6.10;87.30;;;;;;4994310;28;20947;-76
2022/12/02 05:31:31;;;;;;;2.90;2.80;;;6.00;87.30;;;;;;4993723;28;20485;-76
2022/12/02 05:33:58;;;;;;;2.80;2.70;;;6.00;87.50;;;;;;4994509;28;20472;-76
2022/12/02 05:36:24;;;;;;;2.77;2.67;;;6.10;87.30;;;;;;4994462;28;20460;-76
2022/12/02 05:38:51;;;;;;;2.80;2.70;;;6.10;87.20;;;;;;4994193;28;20453;-76
2022/12/02 05:41:18;;;;;;;2.20;2.20;;;6.10;87.10;;;;;;4994368;28;20473;-76
2022/12/02 05:43:46;;;;;;;2.53;2.43;;;6.00;87.40;;;;;;4994345;28;20453;-76
2022/12/02 05:46:14;;;;;;;2.67;2.57;;;6.00;87.40;;;;;;4995820;28;20484;-76
2022/12/02 05:48:42;;;;;;;2.50;2.40;;;6.10;87.60;;;;;;4996179;28;20456;-75
2022/12/02 05:51:12;;;;;;;2.57;2.47;;;6.10;87.30;;;;;;4996382;28;20473;-76
2022/12/02 05:53:40;;;;;;;2.70;2.60;;;6.20;86.80;;;;;;4996181;28;20481;-77
2022/12/02 05:56:12;;;;;;;2.60;2.60;;;6.30;86.80;;;;;;4996364;28;20472;-76
2022/12/02 05:58:39;;;;;;;2.00;2.00;;;6.30;86.90;;;;;;4996638;28;20441;-76
2022/12/02 06:01:20;;;;;;;2.43;2.43;;;6.30;86.90;;;;;;4996442;28;20485;-76
2022/12/02 06:03:48;;;;;;;2.63;2.63;;;6.30;86.70;;;;;;4996349;28;21020;-76
2022/12/02 06:06:16;;;;;;;2.50;2.40;;;6.40;86.60;;;;;;4996031;28;20449;-76
2022/12/02 06:08:43;;;;;;;2.10;2.10;;;6.30;86.60;;;;;;4996316;28;20464;-76
2022/12/02 06:11:24;;;;;;;2.43;2.40;;;6.40;86.70;;;;;;4996289;28;20473;-74
2022/12/02 06:13:52;;;;;;;2.80;2.70;;;6.30;86.70;;;;;;4996454;28;20434;-75
2022/12/02 06:16:44;;;;;;;2.27;2.20;;;6.30;86.90;;;;;;4997159;28;20454;-76
2022/12/02 06:19:20;;;;;;;1.90;1.90;;;6.20;86.90;;;;;;4992409;28;20467;-73
2022/12/02 06:21:47;;;;;;;2.33;2.30;;;6.20;87.00;;;;;;4995036;28;20461;-75
2022/12/02 06:24:14;;;;;;;2.57;2.47;;;6.20;88.10;;;;;;4993762;28;20453;-75
2022/12/02 06:26:41;;;;;;;2.20;2.10;;;6.20;87.30;;;;;;4993845;28;20863;-75
2022/12/02 06:29:15;;;;;;;2.57;2.47;;;6.20;87.30;;;;;;4993817;28;20525;-75
2022/12/02 06:31:43;;;;;;;2.17;2.17;;;6.20;87.50;;;;;;4993744;28;20531;-75
2022/12/02 06:34:31;;;;;;;1.53;1.53;;;6.20;87.10;;;;;;4993795;28;20446;-75
2022/12/02 06:36:58;;;;;;;2.70;2.63;;;6.20;86.80;;;;;;4993472;28;20437;-75
2022/12/02 06:39:25;;;;;;;2.37;2.33;;;6.00;87.30;;;;;;4993759;28;20477;-75
2022/12/02 06:41:52;;;;;;;2.43;2.33;;;6.00;87.60;;;;;;4995140;28;20461;-75
2022/12/02 06:47:39;;;;;;;2.20;2.10;;;6.00;87.40;;;;;;4997734;28;20922;-76
2022/12/02 06:50:24;;;;;;;2.30;2.23;;;6.10;87.50;;;;;;4997619;28;20421;-76
2022/12/02 06:52:51;;;;;;;2.07;2.00;;;6.00;87.50;;;;;;4997721;28;20465;-76
2022/12/02 06:55:30;;;;;;;1.80;1.80;;;5.90;87.90;;;;;;4997496;28;20456;-76
2022/12/02 06:57:59;;;;;;;2.00;2.00;;;6.00;87.60;;;;;;4997470;28;20429;-75
2022/12/02 07:00:25;;;;;;;1.83;1.83;;;6.00;87.20;;;;;;4997481;28;20449;-76
2022/12/02 07:02:52;;;;;;;1.57;1.57;;;6.00;87.80;;;;;;4997235;28;20854;-75
2022/12/02 07:05:21;;;;;;;1.70;1.70;;;6.10;87.50;;;;;;4996996;28;20456;-76
2022/12/02 07:07:48;;;;;;;1.60;1.60;;;6.20;87.40;;;;;;4997200;28;20445;-75
2022/12/02 07:10:20;;;;;;;1.97;1.97;;;6.30;87.10;;;;;;4997515;28;20456;-75
2022/12/02 07:12:48;;;;;;;1.70;1.70;;;6.30;86.70;;;;;;4997110;28;20465;-72
2022/12/02 07:15:25;;;;;;;1.47;1.47;;;6.30;86.70;;;;;;4997236;28;20460;-74
2022/12/02 07:17:53;;;;;;;1.53;1.53;;;6.30;86.30;;;;;;4997266;28;20441;-74
2022/12/02 07:20:29;;;;;;;1.70;1.70;;;6.40;86.40;;;;;;4997156;28;20484;-75
2022/12/02 07:22:58;;;;;;;1.53;1.53;;;6.30;86.10;;;;;;4997248;28;20436;-74
2022/12/02 07:25:37;;;;;;;1.73;1.73;;;6.30;86.20;;;;;;4997017;28;20457;-74
2022/12/02 07:28:20;;;;;;;1.33;1.33;;;6.40;86.10;;;;;;4997009;28;20445;-75
2022/12/02 07:30:53;;;;;;;1.60;1.60;;;6.40;85.90;;;;;;4996599;28;20997;-75
2022/12/02 07:33:20;;;;;;;1.57;1.57;;;6.50;85.70;;;;;;4996792;28;20465;-76
2022/12/02 07:35:48;;;;;;;1.43;1.43;;;6.50;85.90;;;;;;4996334;28;20824;-75
2022/12/02 07:38:15;;;;;;;1.77;1.77;;;6.50;85.80;;;;;;4996647;28;20448;-75
2022/12/02 07:40:42;;;;;;;1.50;1.50;;;6.50;85.90;;;;;;5000095;28;20989;-75
2022/12/02 07:43:09;;;;;;;2.00;1.90;;;6.60;85.70;;;;;;4998747;28;20950;-75
2022/12/02 07:45:36;;;;;;;1.67;1.67;;;6.50;85.70;;;;;;4998889;28;20449;-75
2022/12/02 07:48:03;;;;;;;1.83;1.83;;;6.50;85.60;;;;;;4998747;28;20454;-75
2022/12/02 07:50:30;;;;;;;1.83;1.83;;;6.50;85.50;;;;;;4999116;28;20829;-76
2022/12/02 07:52:58;;;;;;;1.90;1.90;;;6.50;85.50;;;;;;4998493;28;20485;-75
2022/12/02 07:55:25;;;;;;;1.80;1.80;;;6.40;85.80;;;;;;5000652;28;20953;-75
2022/12/02 07:57:52;;;;;;;1.80;1.80;;;6.40;85.90;;;;;;4999949;28;20824;-75
2022/12/02 08:00:20;;;;;;;1.70;1.70;;;6.40;86.00;;;;;;5008026;28;20453;-75
2022/12/02 08:02:47;;;;;;;1.90;1.90;;;6.50;85.80;;;;;;5004855;28;20454;-74
2022/12/02 08:05:13;;;;;;;2.40;2.30;;;6.40;86.00;;;;;;5001859;28;20453;-74
2022/12/02 08:07:41;;;;;;;2.10;2.10;;;6.50;85.80;;;;;;5003340;28;20449;-73
2022/12/02 08:10:10;;;;;;;2.40;2.30;;;6.50;86.10;;;;;;5001976;28;20449;-78
2022/12/02 08:12:37;;;;;;;2.40;2.30;;;6.50;85.90;;;;;;5002821;28;20495;-74
2022/12/02 08:15:05;;;;;;;2.50;2.40;;;6.50;85.80;;;;;;4997529;28;20457;-75
2022/12/02 08:17:32;;;;;;;2.57;2.47;;;6.50;85.80;;;;;;4997311;28;20453;-75
2022/12/02 08:19:59;;;;;;;2.70;2.60;;;6.50;85.90;;;;;;4996653;28;20457;-74
2022/12/02 08:22:25;;;;;;;2.60;2.50;;;6.50;86.10;;;;;;4996435;28;20465;-74
2022/12/02 08:24:54;;;;;;;2.00;2.00;;;6.40;86.30;;;;;;4996329;28;20452;-75
2022/12/02 08:27:22;;;;;;;2.43;2.33;;;6.40;86.30;;;;;;4996394;28;20860;-74
2022/12/02 08:29:49;;;;;;;2.50;2.40;;;6.40;86.50;;;;;;4997603;28;20453;-74
2022/12/02 08:32:16;;;;;;;2.07;2.07;;;6.40;86.70;;;;;;4996317;28;20475;-74
2022/12/02 08:34:43;;;;;;;2.80;2.70;;;6.40;86.70;;;;;;4996227;28;20449;-74
2022/12/02 08:37:10;;;;;;;2.40;2.30;;;6.40;86.60;;;;;;4996039;28;20445;-74
2022/12/02 08:39:37;;;;;;;2.00;2.00;;;6.40;86.90;;;;;;4995983;28;20464;-75
2022/12/02 08:42:04;;;;;;;2.90;2.80;;;6.40;86.80;;;;;;4995908;28;20477;-75
2022/12/02 08:44:33;;;;;;;3.40;3.30;;;6.40;86.70;;;;;;4995708;28;20445;-75
2022/12/02 08:47:00;;;;;;;3.20;3.10;;;6.40;86.70;;;;;;4995915;28;20445;-75
2022/12/02 08:49:27;;;;;;;2.93;2.83;;;6.40;86.40;;;;;;4995849;28;20833;-75
2022/12/02 08:51:54;;;;;;;2.77;2.67;;;6.40;86.60;;;;;;4995802;28;20473;-75
2022/12/02 08:54:20;;;;;;;2.73;2.63;;;6.40;86.80;;;;;;4995672;28;20485;-74
2022/12/02 08:56:48;;;;;;;3.23;3.13;;;6.30;87.00;;;;;;4995684;28;20461;-75
2022/12/02 08:59:15;;;;;;;2.67;2.57;;;6.30;87.00;;;;;;4995574;28;20454;-75
2022/12/02 09:01:43;;;;;;;2.83;2.73;;;6.30;87.10;;;;;;4995311;28;20477;-74
2022/12/02 09:04:10;;;;;;;2.87;2.77;;;6.40;87.10;;;;;;4995441;28;20461;-74
2022/12/02 09:06:36;;;;;;;2.80;2.70;;;6.30;87.10;;;;;;4995246;28;20863;-74
2022/12/02 09:09:04;;;;;;;2.77;2.67;;;6.30;87.30;;;;;;4995779;28;20454;-73
2022/12/02 09:11:31;;;;;;;2.77;2.67;;;6.30;87.60;;;;;;4995428;28;20469;-74
2022/12/02 09:13:58;;;;;;;2.33;2.33;;;6.40;87.10;;;;;;4995041;28;20492;-73
2022/12/02 09:16:25;;;;;;;2.60;2.50;;;6.40;87.10;;;;;;4995428;28;20472;-74
2022/12/02 09:18:54;;;;;;;2.10;2.00;;;6.40;87.00;;;;;;4995593;28;20442;-74
2022/12/02 09:21:21;;;;;;;2.47;2.40;;;6.40;86.80;;;;;;4995011;28;21061;-75
2022/12/02 09:23:48;;;;;;;1.93;1.93;;;6.50;86.90;;;;;;4994798;28;20446;-73
2022/12/02 09:26:15;;;;;;;2.20;2.20;;;6.50;87.00;;;;;;4994597;28;20457;-75
2022/12/02 09:28:42;;;;;;;2.20;2.20;;;6.60;86.80;;;;;;4994948;28;20453;-75
2022/12/02 09:31:08;;;;;;;2.20;2.20;;;6.60;86.40;;;;;;4994270;28;20473;-74
2022/12/02 09:33:35;;;;;;;1.83;1.83;;;6.60;86.10;;;;;;4994552;28;20504;-74
2022/12/02 09:36:03;;;;;;;2.13;2.07;;;6.70;85.90;;;;;;4994696;28;20453;-74
2022/12/02 09:38:31;;;;;;;1.70;1.70;;;6.70;85.80;;;;;;4995930;28;20851;-74
2022/12/02 09:40:58;;;;;;;1.90;1.90;;;6.70;85.90;;;;;;4995399;28;20842;-74
2022/12/02 09:43:24;;;;;;;1.60;1.60;;;6.60;85.90;;;;;;4995183;28;20441;-74
2022/12/02 09:45:51;;;;;;;2.40;1.80;;;6.70;85.70;;;;;;4995119;28;20449;-74
2022/12/02 09:48:18;;;;;;;2.50;2.40;;;6.70;85.60;;;;;;4995313;28;20831;-74
2022/12/02 09:50:45;;;;;;;1.63;1.63;;;6.70;85.60;;;;;;4995263;28;20515;-74
2022/12/02 09:53:15;;;;;;;1.80;1.80;;;6.80;85.60;;;;;;4994641;28;20480;-74
2022/12/02 09:55:42;;;;;;;1.80;1.80;;;6.80;85.50;;;;;;4994607;28;20811;-74
2022/12/02 09:58:12;;;;;;;1.87;1.87;;;6.80;85.30;;;;;;4994996;28;20456;-74
2022/12/02 10:00:39;;;;;;;1.70;1.70;;;6.80;85.50;;;;;;4994795;28;20457;-74
2022/12/02 10:03:07;;;;;;;1.77;1.67;;;6.70;85.80;;;;;;4994554;28;20829;-74
2022/12/02 10:05:35;;;;;;;1.80;1.80;;;6.70;85.80;;;;;;4994394;28;20453;-74
2022/12/02 10:08:03;;;;;;;1.57;1.57;;;6.80;85.50;;;;;;4994871;28;20454;-74
2022/12/02 10:10:35;;;;;;;1.40;1.40;;;6.80;85.20;;;;;;4994711;28;20445;-75
2022/12/02 10:13:03;;;;;;;1.43;1.43;;;6.70;85.10;;;;;;4994098;28;20974;-74
2022/12/02 10:15:30;;;;;;;1.70;1.70;;;6.80;85.30;;;;;;4994843;28;20965;-76
2022/12/02 10:17:59;;;;;;;1.83;1.83;;;6.70;85.20;;;;;;4994185;28;20449;-76
2022/12/02 10:20:28;;;;;;;1.70;1.70;;;6.70;85.50;;;;;;4994095;28;20872;-76
2022/12/02 10:23:10;;;;;;;1.87;1.87;;;6.70;85.60;;;;;;4994125;28;20836;-76
2022/12/02 10:25:39;;;;;;;1.70;1.60;;;6.70;85.50;;;;;;4993806;28;20433;-76
2022/12/02 10:28:20;;;;;;;1.90;1.90;;;6.70;85.50;;;;;;4994077;28;20449;-76
2022/12/02 10:30:52;;;;;;;2.00;1.90;;;6.70;85.90;;;;;;4994187;28;20532;-77
2022/12/02 10:33:24;;;;;;;1.40;1.40;;;6.70;85.70;;;;;;4994194;28;20489;-76
2022/12/02 10:35:53;;;;;;;2.27;2.17;;;6.70;85.70;;;;;;4994350;28;20501;-76
2022/12/02 10:38:32;;;;;;;1.80;1.80;;;6.70;85.40;;;;;;4993805;28;20909;-76
2022/12/02 10:41:17;;;;;;;1.40;1.40;;;6.70;85.40;;;;;;4994325;28;20473;-76
2022/12/02 10:43:45;;;;;;;1.50;1.50;;;6.70;85.50;;;;;;4994186;28;20433;-76
2022/12/02 10:46:13;;;;;;;1.37;1.37;;;6.70;85.40;;;;;;4994063;28;20809;-75
2022/12/02 10:48:41;;;;;;;1.40;1.40;;;6.60;85.60;;;;;;4993963;28;20485;-75
2022/12/02 10:51:12;;;;;;;1.50;1.50;;;6.50;85.90;;;;;;4993879;28;20466;-76
2022/12/02 10:53:39;;;;;;;1.50;1.50;;;6.40;85.90;;;;;;4994017;28;20469;-76
2022/12/02 10:56:07;;;;;;;1.27;1.27;;;6.40;86.30;;;;;;4994377;28;20453;-76
2022/12/02 10:58:35;;;;;;;1.30;1.30;;;6.50;86.30;;;;;;4994694;28;20453;-75
2022/12/02 11:01:02;;;;;;;1.30;1.30;;;6.50;86.10;;;;;;4993938;28;20859;-76
2022/12/02 11:03:28;;;;;;;1.27;1.27;;;6.50;85.90;;;;;;4993780;28;20441;-76
2022/12/02 11:06:05;;;;;;;1.40;1.40;;;6.50;85.70;;;;;;4994124;28;20453;-75
2022/12/02 11:08:32;;;;;;;1.10;1.10;;;6.50;85.70;;;;;;4993717;28;20436;-75
2022/12/02 11:11:12;;;;;;;1.20;1.20;;;6.60;85.80;;;;;;4993147;28;20848;-76
2022/12/02 11:13:54;;;;;;;1.20;1.20;;;6.60;85.80;;;;;;4993393;28;20465;-76
2022/12/02 11:16:46;;;;;;;1.07;1.07;;;6.70;85.60;;;;;;4993454;28;20445;-76
2022/12/02 11:19:42;;;;;;;1.13;1.13;;;6.70;85.40;;;;;;4993366;28;20456;-80
2022/12/02 11:22:41;;;;;;;1.10;1.10;;;6.70;85.20;;;;;;4993759;28;20505;-76
2022/12/02 11:25:46;;;;;;;1.10;1.10;;;6.70;85.10;;;;;;4993307;28;20430;-76
2022/12/02 11:28:35;;;;;;;1.13;1.13;;;6.70;85.00;;;;;;4987139;28;20449;-75
2022/12/02 11:31:22;;;;;;;1.10;1.10;;;6.70;85.20;;;;;;4996799;28;20468;-76
2022/12/02 11:34:01;;;;;;;1.20;1.20;;;6.70;84.90;;;;;;4996760;28;20472;-75
2022/12/02 11:36:29;;;;;;;1.03;1.03;;;6.70;85.00;;;;;;4996849;28;20500;-76
2022/12/02 11:39:03;;;;;;;1.20;1.20;;;6.70;84.90;;;;;;4996639;28;20452;-76
2022/12/02 11:41:31;;;;;;;0.90;0.90;;;6.80;84.70;;;;;;4996525;28;20518;-76
2022/12/02 11:44:20;;;;;;;1.00;1.00;;;6.80;84.70;;;;;;4996555;28;20445;-75
2022/12/02 11:46:49;;;;;;;1.30;1.30;;;6.80;84.80;;;;;;4996627;28;20852;-75
2022/12/02 11:49:31;;;;;;;1.13;1.13;;;6.80;84.80;;;;;;4996492;28;20454;-75
2022/12/02 11:52:18;;;;;;;1.20;1.20;;;6.80;85.00;;;;;;4996642;28;20469;-75
2022/12/02 11:54:48;;;;;;;1.23;1.23;;;6.90;85.20;;;;;;4996101;28;21044;-75
2022/12/02 11:57:19;;;;;;;0.93;0.93;;;6.90;85.10;;;;;;4996000;28;20440;-75
2022/12/02 11:59:49;;;;;;;1.20;1.20;;;6.90;84.90;;;;;;4996113;28;20438;-75
2022/12/02 12:02:17;;;;;;;0.90;0.90;;;6.90;84.90;;;;;;4996440;28;20481;-80
2022/12/02 12:04:45;;;;;;;1.20;1.20;;;6.90;84.40;;;;;;4996562;28;20936;-75
2022/12/02 12:07:13;;;;;;;1.10;1.10;;;6.80;84.50;;;;;;4996455;28;20449;-78
2022/12/02 12:09:40;;;;;;;1.20;1.20;;;6.80;84.30;;;;;;5002932;28;20453;-78
2022/12/02 12:12:16;;;;;;;1.10;1.10;;;6.80;84.50;;;;;;5004150;28;20469;-77
2022/12/02 12:15:01;;;;;;;1.30;1.30;;;6.80;84.80;;;;;;5004202;28;20469;-76
2022/12/02 12:17:44;;;;;;;1.00;1.00;;;6.80;84.70;;;;;;5005055;28;20434;-77
2022/12/02 12:20:45;;;;;;;1.20;1.20;;;6.80;84.90;;;;;;5003912;28;20440;-76
2022/12/02 12:23:28;;;;;;;0.90;0.90;;;6.80;84.70;;;;;;5004761;28;20429;-76
2022/12/02 12:25:54;;;;;;;1.00;1.00;;;6.70;84.40;;;;;;5004264;28;20435;-77
2022/12/02 12:28:24;;;;;;;1.00;1.00;;;6.70;84.80;;;;;;5004921;28;20445;-76
2022/12/02 12:30:53;;;;;;;0.93;0.93;;;6.70;85.00;;;;;;5004598;28;20469;-76
2022/12/02 12:33:19;;;;;;;1.17;1.17;;;6.70;85.10;;;;;;5005272;28;20954;-77
2022/12/02 12:35:46;;;;;;;1.00;1.00;;;6.70;85.20;;;;;;5005028;28;20459;-78
2022/12/02 12:38:13;;;;;;;1.30;1.30;;;6.70;85.10;;;;;;5003818;28;20473;-78
2022/12/02 12:40:40;;;;;;;0.83;0.83;;;6.70;85.00;;;;;;5003757;28;21035;-77
2022/12/02 12:43:07;;;;;;;0.90;0.90;;;6.70;85.20;;;;;;5005416;28;20449;-77
2022/12/02 12:45:33;;;;;;;1.00;1.00;;;6.70;85.60;;;;;;5005713;28;20517;-77
2022/12/02 12:48:02;;;;;;;0.80;0.80;;;6.60;85.20;;;;;;5005668;28;20451;-76
2022/12/02 12:50:28;;;;;;;0.80;0.80;;;6.60;85.20;;;;;;5006467;28;21026;-77
2022/12/02 12:52:55;;;;;;;0.90;0.90;;;6.60;85.40;;;;;;5005362;28;20961;-76
2022/12/02 12:55:22;;;;;;;0.70;0.70;;;6.60;85.40;;;;;;5003802;28;20489;-77
2022/12/02 12:57:49;;;;;;;0.90;0.90;;;6.60;85.20;;;;;;5003796;28;20449;-76
2022/12/02 13:00:16;;;;;;;0.90;0.90;;;6.60;84.80;;;;;;5004499;28;20459;-78
2022/12/02 13:02:43;;;;;;;0.80;0.80;;;6.60;84.80;;;;;;5003763;28;20477;-77
2022/12/02 13:05:11;;;;;;;0.90;0.90;;;6.60;84.70;;;;;;5003931;28;20935;-76
2022/12/02 13:07:38;;;;;;;0.80;0.80;;;6.70;84.90;;;;;;5004347;28;20445;-76
2022/12/02 13:10:06;;;;;;;0.70;0.70;;;6.70;84.90;;;;;;5003601;28;20449;-75
2022/12/02 13:12:32;;;;;;;0.80;0.80;;;6.70;84.90;;;;;;5003415;28;20469;-76
2022/12/02 13:14:59;;;;;;;0.80;0.80;;;6.70;84.60;;;;;;5002907;28;20485;-76
2022/12/02 13:17:26;;;;;;;0.80;0.80;;;6.70;84.70;;;;;;5002056;28;20460;-75
2022/12/02 13:19:53;;;;;;;0.97;0.97;;;6.70;84.50;;;;;;5001932;28;20540;-76
2022/12/02 13:22:21;;;;;;;0.80;0.80;;;6.70;84.30;;;;;;4994813;28;20520;-76
2022/12/02 13:24:47;;;;;;;0.77;0.77;;;6.60;84.30;;;;;;4994905;28;20445;-76
2022/12/02 13:27:14;;;;;;;0.70;0.70;;;6.60;84.60;;;;;;4995084;28;20450;-77
2022/12/02 13:29:41;;;;;;;0.60;0.60;;;6.60;84.60;;;;;;4994863;28;20453;-77
2022/12/02 13:32:08;;;;;;;0.90;0.90;;;6.70;84.60;;;;;;4994534;28;20465;-76
2022/12/02 13:34:34;;;;;;;0.60;0.60;;;6.70;84.80;;;;;;4994427;28;20485;-76
2022/12/02 13:37:01;;;;;;;0.60;0.60;;;6.70;84.80;;;;;;4994455;28;20462;-76
2022/12/02 13:39:29;;;;;;;0.70;0.70;;;6.70;84.20;;;;;;4994489;28;20453;-76
2022/12/02 13:41:56;;;;;;;0.80;0.80;;;6.70;84.50;;;;;;4994387;28;20477;-76
2022/12/02 13:44:22;;;;;;;0.70;0.70;;;6.60;84.30;;;;;;4994471;28;20446;-76
2022/12/02 13:46:49;;;;;;;0.80;0.80;;;6.60;84.30;;;;;;4994538;28;20460;-77
2022/12/02 13:49:16;;;;;;;0.63;0.63;;;6.70;84.30;;;;;;4994791;28;20452;-76
2022/12/02 13:51:43;;;;;;;0.60;0.60;;;6.60;84.40;;;;;;4994459;28;20496;-77
2022/12/02 13:54:09;;;;;;;0.70;0.70;;;6.70;84.20;;;;;;4994992;28;20488;-77
2022/12/02 13:56:37;;;;;;;0.60;0.60;;;6.70;84.30;;;;;;4994953;28;20460;-76
2022/12/02 13:59:04;;;;;;;0.70;0.70;;;6.70;84.40;;;;;;4994962;28;20821;-77
2022/12/02 14:01:31;;;;;;;0.60;0.60;;;6.70;84.40;;;;;;4994549;28;20492;-76
2022/12/02 14:03:57;;;;;;;0.60;0.60;;;6.70;84.40;;;;;;5002824;28;20453;-76
2022/12/02 14:06:24;;;;;;;0.70;0.70;;;6.70;84.30;;;;;;5002648;28;20460;-76
2022/12/02 14:08:51;;;;;;;0.60;0.60;;;6.70;84.40;;;;;;5003158;28;20548;-75
2022/12/02 14:11:18;;;;;;;0.80;0.80;;;6.80;84.40;;;;;;5002877;28;20472;-75
2022/12/02 14:13:46;;;;;;;0.70;0.70;;;6.70;84.70;;;;;;5003339;28;20464;-77
2022/12/02 14:16:13;;;;;;;0.60;0.60;;;6.70;84.70;;;;;;5002975;28;20451;-77
2022/12/02 14:18:39;;;;;;;0.80;0.80;;;6.60;84.90;;;;;;5003140;28;20441;-77
2022/12/02 14:21:07;;;;;;;0.63;0.63;;;6.60;84.80;;;;;;5003892;28;20476;-76
2022/12/02 14:23:33;;;;;;;0.73;0.67;;;6.50;85.10;;;;;;5002418;28;21033;-76
2022/12/02 14:26:00;;;;;;;0.60;0.60;;;6.40;85.50;;;;;;5002491;28;20960;-76
2022/12/02 14:28:27;;;;;;;0.67;0.67;;;6.50;85.20;;;;;;5002338;28;20463;-75
2022/12/02 14:30:55;;;;;;;0.57;0.57;;;6.50;85.40;;;;;;5001569;28;20461;-76
2022/12/02 14:33:22;;;;;;;0.70;0.70;;;6.40;85.50;;;;;;5000716;28;20453;-76
2022/12/02 14:35:49;;;;;;;0.60;0.60;;;6.40;85.60;;;;;;4993930;28;20485;-76
2022/12/02 14:38:15;;;;;;;0.60;0.60;;;6.20;85.90;;;;;;4994129;28;20560;-76
2022/12/02 14:40:42;;;;;;;0.60;0.60;;;6.10;86.40;;;;;;4993984;28;20473;-76
2022/12/02 14:43:09;;;;;;;0.60;0.60;;;5.90;86.90;;;;;;4993695;28;20446;-77
2022/12/02 14:45:36;;;;;;;0.60;0.60;;;5.90;87.30;;;;;;4994067;28;20437;-77
2022/12/02 14:48:04;;;;;;;0.50;0.50;;;5.90;87.10;;;;;;4993915;28;20456;-77
2022/12/02 14:50:31;;;;;;;0.50;0.50;;;5.90;87.30;;;;;;4994072;28;20453;-77
2022/12/02 14:52:58;;;;;;;0.50;0.50;;;6.00;87.10;;;;;;4993944;28;20463;-76
2022/12/02 14:55:25;;;;;;;0.60;0.60;;;5.90;87.20;;;;;;4993400;28;20477;-77
2022/12/02 14:57:52;;;;;;;0.60;0.60;;;5.90;87.10;;;;;;4993814;28;20453;-76
2022/12/02 15:00:19;;;;;;;0.60;0.60;;;6.00;86.90;;;;;;4993893;28;20453;-77
2022/12/02 15:02:47;;;;;;;0.60;0.60;;;5.90;86.60;;;;;;4994550;28;20464;-76
2022/12/02 15:05:17;;;;;;;0.60;0.60;;;5.80;87.00;;;;;;4997352;28;20450;-76
2022/12/02 15:07:44;;;;;;;0.93;0.70;;;5.60;87.70;;;;;;4998055;28;20464;-77
2022/12/02 15:12:58;;;;;;;1.63;0.70;;;5.70;88.00;;;;;;4980104;28;20437;-76
2022/12/02 15:15:25;;;;;;;0.70;0.70;;;5.70;87.60;;;;;;4997123;28;20489;-77
2022/12/02 15:17:51;;;;;;;0.70;0.70;;;5.90;87.40;;;;;;4996940;28;20456;-76
2022/12/02 15:20:21;;;;;;;0.60;0.60;;;5.80;86.90;;;;;;4997050;28;20456;-75
2022/12/02 15:22:48;;;;;;;0.60;0.60;;;5.80;87.10;;;;;;4997000;28;20869;-76
2022/12/02 15:25:15;;;;;;;0.70;0.70;;;5.70;87.20;;;;;;4996957;28;20445;-76
2022/12/02 15:27:41;;;;;;;0.70;0.70;;;5.80;87.00;;;;;;4996893;28;20445;-75
2022/12/02 15:30:09;;;;;;;0.60;0.60;;;5.90;86.90;;;;;;4996634;28;20445;-76
2022/12/02 15:32:38;;;;;;;0.70;0.70;;;5.90;86.80;;;;;;4996887;28;20470;-75
2022/12/02 15:35:06;;;;;;;0.90;0.90;;;6.00;86.60;;;;;;4996672;28;20576;-76
2022/12/02 15:37:34;;;;;;;0.60;0.60;;;5.90;86.20;;;;;;4997293;28;20460;-76
2022/12/02 15:40:01;;;;;;;0.70;0.70;;;5.90;86.50;;;;;;5002085;28;20462;-76
2022/12/02 15:42:28;;;;;;;0.70;0.70;;;6.00;86.20;;;;;;5003610;28;20473;-76
2022/12/02 15:44:54;;;;;;;0.60;0.60;;;6.10;86.20;;;;;;5002292;28;20452;-75
2022/12/02 15:47:21;;;;;;;0.60;0.60;;;6.10;86.20;;;;;;5002600;28;20453;-77
2022/12/02 15:49:48;;;;;;;0.70;0.70;;;6.10;86.10;;;;;;5003225;28;20828;-76
2022/12/02 15:52:15;;;;;;;0.60;0.60;;;6.20;85.90;;;;;;5003155;28;20473;-77
2022/12/02 15:54:43;;;;;;;0.60;0.60;;;6.20;85.70;;;;;;5003298;28;20492;-77
2022/12/02 15:57:10;;;;;;;0.70;0.70;;;6.10;85.80;;;;;;5003766;28;20460;-78
2022/12/02 15:59:36;;;;;;;0.60;0.60;;;6.20;85.60;;;;;;5005474;28;20457;-78
2022/12/02 16:02:03;;;;;;;0.63;0.63;;;6.20;85.40;;;;;;5005304;28;20489;-76
2022/12/02 16:04:31;;;;;;;0.60;0.60;;;6.10;85.60;;;;;;4999721;28;20457;-77
2022/12/02 16:06:58;;;;;;;0.70;0.70;;;6.20;85.80;;;;;;4995863;28;20450;-77
2022/12/02 16:09:25;;;;;;;0.77;0.77;;;6.20;85.60;;;;;;5001776;28;20452;-78
2022/12/02 16:11:53;;;;;;;0.67;0.67;;;6.30;85.60;;;;;;5001912;28;20472;-77
2022/12/02 16:14:19;;;;;;;0.60;0.60;;;6.30;85.50;;;;;;4995908;28;20917;-77
2022/12/02 16:16:46;;;;;;;0.60;0.60;;;6.30;85.40;;;;;;4995940;28;20515;-77
2022/12/02 16:19:13;;;;;;;0.60;0.60;;;6.30;85.50;;;;;;4996130;28;20446;-77
2022/12/02 16:21:39;;;;;;;0.63;0.63;;;6.30;85.40;;;;;;4995837;28;20481;-77
2022/12/02 16:24:07;;;;;;;1.03;0.70;;;6.30;85.10;;;;;;4995600;28;20803;-76
2022/12/02 16:26:33;;;;;;;0.70;0.70;;;6.30;85.30;;;;;;4995893;28;20445;-77
2022/12/02 16:29:01;;;;;;;0.67;0.67;;;6.30;85.30;;;;;;4995527;28;20978;-74
2022/12/02 16:31:28;;;;;;;0.70;0.70;;;6.20;85.30;;;;;;4995823;28;20469;-77
2022/12/02 16:33:55;;;;;;;0.63;0.63;;;6.10;85.70;;;;;;4995744;28;20498;-77
2022/12/02 16:36:22;;;;;;;0.50;0.50;;;6.00;85.50;;;;;;4995668;28;20482;-77
2022/12/02 16:38:48;;;;;;;0.57;0.57;;;5.90;86.10;;;;;;4995676;28;20822;-79
2022/12/02 16:41:15;;;;;;;0.60;0.60;;;6.00;86.00;;;;;;4995866;28;20476;-78
2022/12/02 16:43:42;;;;;;;0.67;0.67;;;6.00;86.10;;;;;;4995586;28;20450;-78
2022/12/02 16:46:10;;;;;;;0.60;0.60;;;6.00;85.80;;;;;;4995752;28;20446;-77
2022/12/02 16:48:36;;;;;;;0.67;0.67;;;5.90;86.30;;;;;;4995605;28;20453;-77
2022/12/02 16:51:03;;;;;;;0.60;0.60;;;5.80;86.40;;;;;;4994974;28;20473;-77
2022/12/02 16:53:30;;;;;;;0.70;0.70;;;5.90;86.40;;;;;;4995139;28;20456;-77
2022/12/02 16:55:57;;;;;;;0.60;0.60;;;5.90;86.20;;;;;;4995398;28;20508;-79
2022/12/02 16:58:23;;;;;;;0.60;0.60;;;5.80;86.40;;;;;;4995335;28;20460;-78
2022/12/02 17:00:50;;;;;;;0.60;0.60;;;5.80;85.90;;;;;;4995068;28;20473;-78
2022/12/02 17:03:18;;;;;;;0.70;0.70;;;5.80;86.20;;;;;;4995718;28;20438;-78
2022/12/02 17:05:45;;;;;;;0.70;0.70;;;5.90;85.90;;;;;;4995326;28;20441;-78
2022/12/02 17:08:12;;;;;;;0.70;0.70;;;5.90;86.00;;;;;;4994995;28;20950;-78
2022/12/02 17:10:38;;;;;;;0.60;0.60;;;6.00;86.00;;;;;;4995534;28;20450;-78
2022/12/02 17:13:05;;;;;;;0.70;0.70;;;6.00;85.80;;;;;;4995699;28;20445;-79